Hannaford, North Dakota
Current Conditions -  °F | °C
As of 2:15 AM on Sunday 21 Dec 2014 (Local Time) from KBAC Reporting Station
Unknown Precip Unknown Precip  
Wind Chill: 15°   Ceiling: 200
Heat Index: 27°   Visibility: 1mi
Dew Point: 27°   Wind: 15mph
Humidity: 100%   Direction: 200°SSW
Pressure: 29.77"   Gusts: NA
Location:  47.31°N, 98.19°W
Report Text: KBAC 210815Z AUTO 20013KT 1SM UP OVC002 M03/M03 A2977 RMK AO2
Loading
Personal Weather Stations






























Interactive Weather Map New forecast layout! Learn more

10-Day Weather Forecast

Advertisements
Track Severe Weather on mobile